Aviation Digital Data Service (ADDS)

Output produced by METARs form (0938 UTC 07 December 2022)
found at http://www.aviationweather.gov/metar/data/
 
Forecast for: ESSA (STOCKHOLM/ARLAND, SE)
Text: TAF ESSA 070830Z 0709/0809 33004KT CAVOK
Forecast period: 0900 UTC 07 December 2022 to 0900 UTC 08 December 2022
Forecast type: FROM: standard forecast or significant change
Winds: from the NNW (330 degrees) at 5 MPH (4 knots; 2.1 m/s)
Visibility: 6 or more miles (10+ km)
Ceiling: unknown
Clouds: missing
Weather: NSW  (no significant weather)